createdAt,value
2022-09-01T00:00:03.397Z,62
2022-09-01T00:20:03.117Z,62
2022-09-01T00:40:02.428Z,62
2022-09-01T01:00:02.756Z,62
2022-09-01T01:20:02.516Z,62
2022-09-01T01:40:03.028Z,63
2022-09-01T02:00:02.421Z,63
2022-09-01T02:20:03.145Z,64
2022-09-01T02:40:02.695Z,64
2022-09-01T03:00:03.014Z,65
2022-09-01T03:20:02.431Z,66
2022-09-01T03:40:02.859Z,67
2022-09-01T04:00:03.271Z,67
2022-09-01T04:20:03.407Z,67
2022-09-01T04:40:04.433Z,67
2022-09-01T05:00:03.073Z,68
2022-09-01T05:20:03.750Z,68
2022-09-01T05:40:02.608Z,69
2022-09-01T06:00:03.338Z,69
2022-09-01T06:20:03.372Z,69
2022-09-01T06:40:03.354Z,68
2022-09-01T07:00:04.053Z,66
2022-09-01T07:20:34.163Z,62
2022-09-01T08:00:02.989Z,54
2022-09-01T08:20:03.346Z,50
2022-09-01T08:40:04.199Z,47
2022-09-01T09:00:02.631Z,43
2022-09-01T09:20:03.062Z,39
2022-09-01T09:40:02.468Z,38
2022-09-01T10:00:02.896Z,37
2022-09-01T10:20:04.048Z,37
2022-09-01T10:40:02.979Z,37
2022-09-01T11:00:03.657Z,37
2022-09-01T11:20:02.679Z,37
2022-09-01T11:40:03.220Z,37
2022-09-01T12:00:02.793Z,36
2022-09-01T12:20:02.212Z,37
2022-09-01T12:40:02.731Z,37
2022-09-01T13:00:03.229Z,37
2022-09-01T13:20:02.802Z,38
2022-09-01T13:40:03.306Z,37
2022-09-01T14:00:02.724Z,39
2022-09-01T14:20:02.595Z,37
2022-09-01T14:40:03.071Z,39
2022-09-01T15:00:03.329Z,39
2022-09-01T15:20:02.852Z,43
2022-09-01T15:40:03.621Z,44
2022-09-01T16:00:04.389Z,44
2022-09-01T16:20:03.878Z,45
2022-09-01T16:40:09.995Z,45
2022-09-01T17:00:04.342Z,46
2022-09-01T17:20:09.110Z,47
2022-09-01T17:40:03.505Z,48
2022-09-01T18:00:03.928Z,50
2022-09-01T18:20:02.756Z,53
2022-09-01T18:40:03.430Z,54
2022-09-01T19:00:03.180Z,56
2022-09-01T19:20:03.206Z,57
2022-09-01T19:40:02.669Z,58
2022-09-01T20:00:10.051Z,58
2022-09-01T20:20:07.816Z,59
2022-09-01T20:40:03.657Z,60
2022-09-01T21:20:02.910Z,63
2022-09-01T21:40:02.179Z,64
2022-09-01T22:00:02.405Z,64
2022-09-01T22:20:03.324Z,65
2022-09-01T22:40:02.638Z,65
2022-09-01T23:00:02.867Z,66
2022-09-01T23:20:02.524Z,66
2022-09-01T23:40:02.646Z,66
